Pagina principale
METAR-TAF:

METAR-TAF

Aeroporti :

Aeroporto di Niamey-Diori Hamani

Niamey, Niger

latitudine: 13-29N, longitudine: 002-10E, altezza: 223 m

Osservazione

Il bollettino è stato emesso 45 minuti fa, alle 22:00 UTC
Vento 9 kt da nord-est
Temperature 28°C
Umidità 10%
Pressione 1014 hPa
Visibilità: 8000 m

METAR: DRRN 242200Z 05009KT 8000 NSC 28/M07 Q1014 NOSIG

Ora: 23:45 (22:45 UTC)

Previsione

Il bollettino è stato emesso 5 ore e 45 minuti fa, alle 17:00 UTC
Previsione valida dal 24 alle 18 UTC al 25 alle 24 UTC
Vento 10 kt da est
Visibilità: 4000 m
polvere diffusa
Evoluzione graduale
dal 24 alle 22 UTC al 24 alle 24 UTC
Visibilità: 6000 m
Temporaneamente
dal 25 alle 06 UTC al 25 alle 09 UTC
Visibilità: 4000 m
polvere diffusa
Temporaneamente
dal 25 alle 09 UTC al 25 alle 12 UTC
Vento 20 kt da est
Visibilità: 2500 m
Scaccia polvere alto

TAF: DRRN 241700Z 2418/2524 08010KT 4000 DU NSC BECMG 2422/2424 6000 NSW TEMPO 2506/2509 4000 DU TEMPO 2509/2512 10020KT 2500 BLDU

Osservazioni e previsioni meteorologiche di più di 4000 aeroporti (messaggi METAR e TAF).

Le stazioni disponibili sono rappresentate dai dischi gialli e rossi sulla carta.

Puntare il mouse per vedere il nome della stazione.

Clicca sopra per visualizzare le osservazioni e previsioni meteorologiche.

Per cambiare la mappa : fare clic sui pulsanti verdi con una croce nera per ingrandire, il pulsante verde con un trattino per diminuire, o sulla freccia verde per le mappe adiacenti.


METAR-TAF: